Time;durP1;ratioP1;P1;durP2;ratioP2;P2;SDS_P1;SDS_P2;PMS_P1;PMS_P2;Temp;Humidity;BMP_temperature;BMP_pressure;BME280_temperature;BME280_humidity;BME280_pressure;Samples;Min_cycle;Max_cycle;Signal;HPM_P1;HPM_P2
2022/09/30 00:02:36;;;;;;;1.13;0.70;;;;;;;17.41;97.04;100448.25;21147101;27;20069;-75
2022/09/30 00:12:38;;;;;;;2.88;0.90;;;;;;;17.40;96.94;100449.25;21223007;27;20130;-75
2022/09/30 00:22:40;;;;;;;1.50;0.88;;;;;;;17.30;97.06;100445.72;21225400;27;20050;-75
2022/09/30 00:32:41;;;;;;;1.42;0.90;;;;;;;17.33;96.94;100446.28;21222958;27;20134;-75
2022/09/30 00:42:43;;;;;;;1.02;0.63;;;;;;;17.38;96.83;100444.00;21221823;27;20047;-75
2022/09/30 00:52:49;;;;;;;2.55;0.90;;;;;;;17.11;96.90;100409.78;21221515;27;20059;-78
2022/09/30 01:02:53;;;;;;;2.25;0.88;;;;;;;17.10;96.97;100414.31;21134611;27;20472;-75
2022/09/30 01:12:55;;;;;;;1.33;0.70;;;;;;;17.37;96.91;100469.22;21202582;27;20096;-75
2022/09/30 01:23:22;;;;;;;1.25;0.70;;;;;;;17.36;96.74;100455.91;21219815;27;20061;-75
2022/09/30 01:33:32;;;;;;;1.23;0.68;;;;;;;17.36;96.72;100461.28;21219490;27;20134;-75
2022/09/30 01:43:46;;;;;;;1.42;0.95;;;;;;;17.36;96.80;100467.50;21218416;27;20559;-75
2022/09/30 01:53:56;;;;;;;1.70;0.90;;;;;;;17.25;96.79;100447.00;21206004;27;20074;-75
2022/09/30 02:04:02;;;;;;;2.65;0.70;;;;;;;17.18;96.62;100432.41;21171881;27;20705;-75
2022/09/30 02:14:16;;;;;;;1.25;0.73;;;;;;;17.35;96.56;100459.59;21215907;27;20108;-75
2022/09/30 02:24:20;;;;;;;0.73;0.60;;;;;;;17.24;96.62;100453.38;21215640;27;20043;-75
2022/09/30 02:34:24;;;;;;;1.30;0.65;;;;;;;17.31;96.45;100468.94;21212760;27;20134;-75
2022/09/30 02:44:26;;;;;;;0.73;0.57;;;;;;;17.33;96.56;100467.78;21212266;27;20453;-75
2022/09/30 02:54:57;;;;;;;0.93;0.60;;;;;;;17.27;96.42;100454.91;21136783;27;20057;-75
2022/09/30 03:04:59;;;;;;;1.17;0.80;;;;;;;16.93;96.29;100413.16;21171360;27;20043;-75
2022/09/30 03:15:29;;;;;;;1.02;0.60;;;;;;;17.30;96.44;100488.78;21034967;27;20053;-75
2022/09/30 03:25:41;;;;;;;1.10;0.60;;;;;;;17.31;96.48;100490.47;20745765;27;20444;-75
2022/09/30 03:36:08;;;;;;;1.13;0.60;;;;;;;17.29;96.19;100490.59;20706678;27;20058;-75
2022/09/30 03:46:20;;;;;;;0.98;0.68;;;;;;;17.02;96.28;100453.66;20706015;27;21087;-75
2022/09/30 03:56:30;;;;;;;1.05;0.50;;;;;;;17.30;96.40;100499.53;20834456;27;20107;-75
2022/09/30 04:06:32;;;;;;;0.85;0.52;;;;;;;17.23;96.50;100499.25;20728585;27;20042;-74
2022/09/30 04:16:33;;;;;;;1.30;0.80;;;;;;;17.04;98.51;100457.91;20712012;27;20045;-74
2022/09/30 04:26:35;;;;;;;6.30;1.73;;;;;;;17.38;98.06;100507.75;20722503;27;20048;-74
2022/09/30 04:36:37;;;;;;;3.58;1.00;;;;;;;17.53;97.83;100527.84;20825683;27;20106;-74
2022/09/30 04:46:38;;;;;;;4.68;0.70;;;;;;;17.57;98.72;100543.69;20882346;27;20520;-75
2022/09/30 04:56:40;;;;;;;5.30;0.65;;;;;;;17.59;98.72;100534.50;21080655;27;20060;-75
2022/09/30 05:06:41;;;;;;;1.20;0.60;;;;;;;17.61;98.55;100539.72;21220275;27;20444;-75
2022/09/30 05:16:43;;;;;;;1.80;0.70;;;;;;;17.46;98.90;100525.88;21201471;27;20047;-75
2022/09/30 05:26:44;;;;;;;1.92;0.55;;;;;;;17.41;98.88;100518.22;21219698;27;20047;-75
2022/09/30 05:36:46;;;;;;;0.60;0.40;;;;;;;17.63;99.00;100565.50;21218908;27;20055;-75
2022/09/30 05:46:47;;;;;;;1.58;0.63;;;;;;;17.65;98.97;100570.75;21217935;27;20047;-74
2022/09/30 05:56:49;;;;;;;1.98;0.57;;;;;;;17.59;98.68;100565.94;21129727;27;20418;-74
2022/09/30 06:06:50;;;;;;;1.73;0.60;;;;;;;17.65;98.81;100579.69;21215425;27;20480;-75
2022/09/30 06:16:52;;;;;;;1.90;0.75;;;;;;;17.65;98.86;100605.75;21213997;27;20047;-75
2022/09/30 06:26:53;;;;;;;0.47;0.30;;;;;;;17.11;98.57;100517.34;21214746;27;20495;-75
2022/09/30 06:36:55;;;;;;;1.85;0.60;;;;;;;17.66;98.83;100605.59;21214148;27;20552;-74
2022/09/30 06:46:58;;;;;;;0.40;0.30;;;;;;;17.68;98.69;100621.63;21196957;27;20579;-75
2022/09/30 06:57:00;;;;;;;0.40;0.40;;;;;;;17.67;98.82;100630.69;21169610;27;20050;-75
2022/09/30 07:07:02;;;;;;;0.80;0.50;;;;;;;17.68;98.63;100617.09;21080179;27;20087;-73
2022/09/30 07:17:05;;;;;;;2.10;0.50;;;;;;;17.46;98.28;100583.22;20819257;27;20053;-75
2022/09/30 07:27:06;;;;;;;1.08;0.45;;;;;;;17.60;98.16;100619.63;20863956;27;20512;-74
2022/09/30 07:37:09;;;;;;;0.68;0.55;;;;;;;17.57;98.13;100619.06;20878577;27;20712;-74
2022/09/30 07:47:13;;;;;;;2.30;0.60;;;;;;;17.41;98.01;100593.56;20892456;27;20037;-74
2022/09/30 07:57:15;;;;;;;0.93;0.40;;;;;;;17.56;97.84;100622.75;20792671;27;20045;-74
2022/09/30 08:07:17;;;;;;;0.95;0.50;;;;;;;17.07;97.39;100553.59;20792010;27;20049;-74
2022/09/30 08:17:18;;;;;;;1.92;0.50;;;;;;;17.50;97.58;100629.56;20791900;27;20091;-74
2022/09/30 08:27:20;;;;;;;0.68;0.60;;;;;;;17.49;97.29;100634.06;20790683;27;20517;-74
2022/09/30 08:37:23;;;;;;;0.35;0.30;;;;;;;17.32;97.22;100610.56;20792415;27;20073;-74
2022/09/30 08:47:39;;;;;;;0.73;0.55;;;;;;;17.47;97.24;100635.22;20924867;27;20124;-74
2022/09/30 08:57:43;;;;;;;0.55;0.50;;;;;;;17.11;97.17;100565.78;20812173;27;20045;-74
2022/09/30 09:07:59;;;;;;;0.50;0.50;;;;;;;17.51;96.76;100632.09;20776000;27;20796;-74
2022/09/30 09:18:33;;;;;;;0.60;0.50;;;;;;;17.54;96.54;100628.28;20771587;27;20053;-74
2022/09/30 09:28:48;;;;;;;0.70;0.30;;;;;;;17.50;96.35;100621.47;20742101;27;20053;-74
2022/09/30 09:38:57;;;;;;;0.50;0.35;;;;;;;17.54;96.20;100615.66;20769911;27;20058;-73
2022/09/30 09:49:21;;;;;;;1.52;0.63;;;;;;;17.52;96.22;100623.03;20793672;27;20378;-73
2022/09/30 09:59:23;;;;;;;0.60;0.40;;;;;;;17.52;96.26;100641.03;20762725;27;20045;-73
2022/09/30 10:09:35;;;;;;;0.60;0.40;;;;;;;17.50;96.11;100627.69;20804039;27;20501;-74
2022/09/30 10:19:36;;;;;;;0.80;0.50;;;;;;;17.50;96.18;100632.25;20795115;27;20056;-74
2022/09/30 10:29:46;;;;;;;0.40;0.40;;;;;;;17.44;96.31;100619.31;20793843;27;20049;-74
2022/09/30 10:40:17;;;;;;;0.73;0.40;;;;;;;17.50;96.08;100616.94;20775361;27;20053;-74
2022/09/30 10:50:25;;;;;;;0.90;0.40;;;;;;;17.50;95.88;100618.78;20738563;27;20049;-74
2022/09/30 11:00:30;;;;;;;0.57;0.40;;;;;;;17.30;95.96;100575.69;20736042;27;20053;-74
2022/09/30 11:10:38;;;;;;;0.70;0.40;;;;;;;17.39;95.84;100587.47;20748771;27;20050;-74
2022/09/30 11:20:44;;;;;;;0.30;0.30;;;;;;;17.50;95.80;100587.34;20767094;27;20056;-74
2022/09/30 11:31:18;;;;;;;0.43;0.43;;;;;;;17.55;94.07;100603.06;20717701;27;20189;-73
2022/09/30 11:41:32;;;;;;;1.27;0.52;;;;;;;17.67;93.27;100584.91;20740789;27;20052;-73
2022/09/30 11:52:06;;;;;;;1.70;0.70;;;;;;;17.77;92.61;100571.44;20731872;27;20097;-73
2022/09/30 12:02:28;;;;;;;2.17;0.60;;;;;;;17.74;91.89;100572.59;20640361;27;20133;-73
2022/09/30 12:12:31;;;;;;;2.08;0.70;;;;;;;17.84;91.07;100569.88;20725265;27;20057;-73
2022/09/30 12:22:39;;;;;;;2.30;0.70;;;;;;;17.69;90.81;100547.94;20740539;27;20132;-73
2022/09/30 12:33:19;;;;;;;1.55;0.85;;;;;;;17.89;90.79;100553.28;20729927;27;20526;-73
2022/09/30 12:43:54;;;;;;;3.67;1.33;;;;;;;17.89;91.23;100543.34;20714998;27;20078;-74
2022/09/30 12:54:03;;;;;;;7.67;2.43;;;;;;;17.63;91.46;100500.03;20746173;27;20140;-76
2022/09/30 13:04:05;;;;;;;5.38;1.38;;;;;;;17.84;91.97;100529.47;20730606;27;20046;-75
2022/09/30 13:14:31;;;;;;;4.57;1.45;;;;;;;17.79;92.52;100535.31;20732573;27;20163;-74
2022/09/30 13:24:56;;;;;;;2.05;1.10;;;;;;;17.74;93.23;100520.59;20730744;27;20057;-76
2022/09/30 13:34:58;;;;;;;4.73;1.10;;;;;;;17.60;93.49;100489.56;20718892;27;20053;-74
2022/09/30 13:45:20;;;;;;;4.20;1.30;;;;;;;17.73;96.21;100500.91;20729992;27;20065;-73
2022/09/30 13:55:26;;;;;;;3.20;1.13;;;;;;;17.76;96.51;100478.22;20728946;27;20049;-73
2022/09/30 14:05:35;;;;;;;2.85;1.23;;;;;;;17.79;96.31;100488.69;20739313;27;20099;-74
2022/09/30 14:16:05;;;;;;;2.58;1.38;;;;;;;17.78;96.43;100487.84;20744171;27;20406;-73
2022/09/30 14:26:31;;;;;;;3.15;1.30;;;;;;;17.76;96.64;100473.69;20726759;27;20071;-75
2022/09/30 14:36:33;;;;;;;2.38;1.15;;;;;;;17.78;96.71;100460.06;20740859;27;20149;-74
2022/09/30 14:46:40;;;;;;;3.65;1.40;;;;;;;17.52;96.56;100413.09;20744101;27;20060;-74
2022/09/30 14:56:41;;;;;;;4.82;1.20;;;;;;;17.73;96.62;100444.38;20744152;27;20536;-73
2022/09/30 15:06:46;;;;;;;2.85;1.20;;;;;;;17.69;96.62;100434.88;20748934;27;20098;-74
2022/09/30 15:16:50;;;;;;;1.65;1.00;;;;;;;17.49;96.40;100402.63;20722499;27;20062;-74
2022/09/30 15:26:54;;;;;;;1.80;1.13;;;;;;;17.62;95.80;100431.91;20730449;27;20072;-73
2022/09/30 15:37:03;;;;;;;3.10;1.27;;;;;;;17.60;95.34;100433.91;20740612;27;20073;-73
2022/09/30 15:47:08;;;;;;;2.45;1.05;;;;;;;17.45;94.92;100422.75;20749144;27;20106;-74
2022/09/30 15:57:41;;;;;;;3.22;1.00;;;;;;;17.57;94.97;100446.78;20731811;27;20110;-74
2022/09/30 16:07:43;;;;;;;1.52;0.90;;;;;;;17.55;95.03;100449.66;20715814;27;20739;-74
2022/09/30 16:17:46;;;;;;;1.85;1.10;;;;;;;17.43;94.58;100440.88;20705742;27;20941;-75
2022/09/30 16:27:53;;;;;;;2.70;1.00;;;;;;;17.17;94.97;100417.25;20739126;27;20103;-74
2022/09/30 16:38:00;;;;;;;2.33;0.90;;;;;;;17.51;95.27;100441.00;20704639;27;20546;-74
2022/09/30 16:48:10;;;;;;;2.15;1.10;;;;;;;17.50;94.84;100433.94;20717957;27;20662;-75
2022/09/30 16:58:12;;;;;;;1.70;0.82;;;;;;;17.48;94.71;100435.91;20721982;27;20102;-75
2022/09/30 17:08:15;;;;;;;1.42;0.88;;;;;;;17.48;94.59;100427.00;20757981;27;20114;-75
2022/09/30 17:18:17;;;;;;;1.25;0.70;;;;;;;17.47;94.20;100419.94;20750775;27;20575;-74
2022/09/30 17:28:19;;;;;;;0.95;0.75;;;;;;;17.47;94.37;100417.25;20741215;27;20053;-74
2022/09/30 17:38:20;;;;;;;1.10;0.90;;;;;;;17.33;94.27;100388.94;20720767;27;20050;-74
2022/09/30 17:48:22;;;;;;;1.52;0.65;;;;;;;17.45;94.41;100401.22;20719888;27;20050;-74
2022/09/30 17:58:23;;;;;;;1.40;0.80;;;;;;;17.40;94.40;100396.25;20750905;27;20045;-74
2022/09/30 18:08:27;;;;;;;1.33;0.70;;;;;;;17.13;94.12;100337.03;20764061;27;20102;-74
2022/09/30 18:18:28;;;;;;;0.85;0.60;;;;;;;17.26;94.35;100364.44;20707429;27;20523;-74
2022/09/30 18:28:30;;;;;;;0.95;0.70;;;;;;;17.43;94.73;100392.44;20727888;27;20050;-75
2022/09/30 18:38:34;;;;;;;3.28;1.00;;;;;;;17.45;97.53;100379.69;20709648;27;20125;-75
2022/09/30 18:48:36;;;;;;;3.03;0.80;;;;;;;17.50;98.32;100361.25;20806421;27;20052;-74
2022/09/30 18:58:39;;;;;;;4.05;1.10;;;;;;;17.31;98.78;100319.13;20863634;27;20532;-75
2022/09/30 19:08:41;;;;;;;2.10;0.90;;;;;;;17.46;98.76;100332.13;20868728;27;20083;-75
2022/09/30 19:18:43;;;;;;;0.93;0.85;;;;;;;17.25;98.46;100282.91;20889770;27;20127;-75
2022/09/30 19:28:45;;;;;;;2.50;0.93;;;;;;;17.08;98.51;100243.31;20900142;27;20047;-75
2022/09/30 19:38:46;;;;;;;2.13;1.10;;;;;;;17.17;98.34;100252.34;21195017;27;20429;-75
2022/09/30 19:48:48;;;;;;;3.15;1.00;;;;;;;17.42;98.21;100279.56;21237659;27;20043;-75
2022/09/30 19:58:52;;;;;;;2.17;0.95;;;;;;;17.42;98.12;100271.50;21236823;27;20096;-76
2022/09/30 20:09:03;;;;;;;1.33;0.75;;;;;;;17.35;98.18;100245.19;21236033;27;20068;-74
2022/09/30 20:19:04;;;;;;;3.08;0.90;;;;;;;17.30;98.08;100234.03;21235505;27;20076;-75
2022/09/30 20:29:07;;;;;;;1.92;0.80;;;;;;;17.39;97.74;100214.28;21136903;27;20050;-75
2022/09/30 20:39:09;;;;;;;2.22;0.90;;;;;;;17.39;98.01;100194.63;21219577;27;20552;-74
2022/09/30 20:49:10;;;;;;;1.77;0.73;;;;;;;17.38;97.88;100185.69;21220659;27;20047;-75
2022/09/30 20:59:12;;;;;;;1.77;0.82;;;;;;;17.37;97.72;100178.63;21220563;27;20491;-75
2022/09/30 21:09:14;;;;;;;1.55;0.88;;;;;;;17.37;97.78;100165.16;21219198;27;20050;-75
2022/09/30 21:19:17;;;;;;;2.22;0.90;;;;;;;17.36;97.53;100151.88;21217877;27;20402;-74
2022/09/30 21:29:21;;;;;;;1.25;0.90;;;;;;;17.37;97.58;100150.88;21157137;27;20047;-74
2022/09/30 21:39:22;;;;;;;1.42;0.75;;;;;;;17.37;97.60;100145.50;21199843;27;20083;-75
2022/09/30 21:49:24;;;;;;;1.73;0.93;;;;;;;17.37;97.57;100148.19;21217854;27;20558;-75
2022/09/30 21:59:25;;;;;;;1.25;0.65;;;;;;;17.36;97.51;100123.13;21216342;27;20051;-75
2022/09/30 22:09:27;;;;;;;1.48;0.70;;;;;;;17.34;97.48;100110.84;21215651;27;20135;-75
2022/09/30 22:19:28;;;;;;;0.90;0.63;;;;;;;17.00;97.34;100036.16;21214686;27;20058;-75
2022/09/30 22:29:31;;;;;;;0.85;0.60;;;;;;;17.35;97.50;100086.44;21128974;27;20058;-75
2022/09/30 22:39:33;;;;;;;1.25;0.70;;;;;;;17.10;97.30;100031.56;21212329;27;20047;-75
2022/09/30 22:49:35;;;;;;;1.88;0.80;;;;;;;17.34;97.35;100087.44;21217610;27;20050;-75
2022/09/30 22:59:37;;;;;;;1.35;0.70;;;;;;;17.34;97.48;100086.63;21210320;27;20074;-75
2022/09/30 23:09:38;;;;;;;1.48;0.82;;;;;;;17.34;97.37;100092.81;21210165;27;20402;-75
2022/09/30 23:19:40;;;;;;;1.80;0.80;;;;;;;17.35;97.46;100104.44;21207731;27;20054;-75
2022/09/30 23:29:41;;;;;;;1.00;0.63;;;;;;;17.34;97.33;100087.44;21158307;27;20074;-75
2022/09/30 23:39:43;;;;;;;1.52;0.70;;;;;;;17.08;96.96;100029.03;21207861;27;20116;-75
2022/09/30 23:49:45;;;;;;;0.90;0.60;;;;;;;17.32;97.13;100049.09;21208675;27;20044;-74
2022/09/30 23:59:46;;;;;;;1.00;0.50;;;;;;;17.33;97.08;100031.13;21215123;27;20587;-75
